To NAV CANADA Home Page Login to a new session Search on AWWS site Feedback and Comments Disclaimer Vers la page française équivalente Tips FAQ What's new on the site To the Forecasts and Observations / NOTAM section To "File a Flight Plan" website Publications and other links Update of the User's profile FIC Telephone Numbers My Weather Data Folder Route Weather Data Regional Weather Data Local Weather Data To the Forecasts and Observations / NOTAM section
Request Generated 06/26/2017 at 22:32:06 UTC . Weather information available at that time is displayed.

METAR/TAF

HAY RIVER/MERLYN CARTER AIRPORT/NT    

METAR CYHY 262200Z 08012KT 15SM FEW030TCU SCT130 BKN230 22/14 A2960
RMK TCU1AC2CI3 SLP029 DENSITY ALT 1900FT=
METAR CYHY 262100Z 07008KT 15SM FEW030TCU SCT130 BKN230 22/14 A2961
RMK TCU1AC2CI3 FU SLP033 DENSITY ALT 1900FT=
METAR CYHY 262000Z 08006KT 360V090 15SM FEW030TCU BKN110 BKN230 18/14
A2963 RMK TCU1AC4CI2 SLP040 DENSITY ALT 1400FT=

TAF AMD CYHY 261857Z 2618/2706 VRB03KT P6SM SCT060 BKN120 TEMPO
2618/2706 P6SM -SHRA OVC060 PROB40 2618/2706 VRB15G25KT 5SM TSRA
BR BKN060CB
RMK NXT FCST BY 270000Z=
Your time UTC time
Weather data provided by Environment Canada and NAV CANADA